sensor_id;sensor_type;location;lat;lon;timestamp;pressure;altitude;pressure_sealevel;temperature;humidity
9774;BME280;4926;42.670;23.316;2022-12-18T00:02:16;95304.44;;;7.10;100.00
9774;BME280;4926;42.670;23.316;2022-12-18T00:04:44;95305.34;;;6.99;100.00
9774;BME280;4926;42.670;23.316;2022-12-18T00:07:11;95315.56;;;6.91;100.00
9774;BME280;4926;42.670;23.316;2022-12-18T00:09:38;95298.19;;;6.78;100.00
9774;BME280;4926;42.670;23.316;2022-12-18T00:12:05;95307.78;;;6.84;100.00
9774;BME280;4926;42.670;23.316;2022-12-18T00:14:32;95308.78;;;6.78;100.00
9774;BME280;4926;42.670;23.316;2022-12-18T00:17:01;95316.16;;;6.76;100.00
9774;BME280;4926;42.670;23.316;2022-12-18T00:19:28;95313.75;;;6.74;100.00
9774;BME280;4926;42.670;23.316;2022-12-18T00:21:56;95318.25;;;6.74;100.00
9774;BME280;4926;42.670;23.316;2022-12-18T00:24:23;95326.63;;;6.66;100.00
9774;BME280;4926;42.670;23.316;2022-12-18T00:26:52;95328.69;;;6.64;100.00
9774;BME280;4926;42.670;23.316;2022-12-18T00:29:19;95325.00;;;6.65;100.00
9774;BME280;4926;42.670;23.316;2022-12-18T00:31:45;95336.19;;;6.72;100.00
9774;BME280;4926;42.670;23.316;2022-12-18T00:34:15;95334.63;;;6.71;100.00
9774;BME280;4926;42.670;23.316;2022-12-18T00:36:42;95336.19;;;6.72;100.00
9774;BME280;4926;42.670;23.316;2022-12-18T00:39:11;95336.19;;;6.72;100.00
9774;BME280;4926;42.670;23.316;2022-12-18T00:41:38;95338.72;;;6.62;100.00
9774;BME280;4926;42.670;23.316;2022-12-18T00:44:22;95341.53;;;6.55;100.00
9774;BME280;4926;42.670;23.316;2022-12-18T00:46:50;95350.19;;;6.51;100.00
9774;BME280;4926;42.670;23.316;2022-12-18T00:49:18;95349.72;;;6.54;100.00
9774;BME280;4926;42.670;23.316;2022-12-18T00:51:48;95340.16;;;6.53;100.00
9774;BME280;4926;42.670;23.316;2022-12-18T00:54:17;95354.06;;;6.43;100.00
9774;BME280;4926;42.670;23.316;2022-12-18T00:56:44;95357.78;;;6.47;100.00
9774;BME280;4926;42.670;23.316;2022-12-18T00:59:10;95358.53;;;6.43;100.00
9774;BME280;4926;42.670;23.316;2022-12-18T01:01:37;95363.31;;;6.46;100.00
9774;BME280;4926;42.670;23.316;2022-12-18T01:04:04;95357.88;;;6.36;100.00
9774;BME280;4926;42.670;23.316;2022-12-18T01:06:30;95356.44;;;6.28;100.00
9774;BME280;4926;42.670;23.316;2022-12-18T01:08:57;95362.38;;;6.19;100.00
9774;BME280;4926;42.670;23.316;2022-12-18T01:11:25;95368.22;;;6.21;100.00
9774;BME280;4926;42.670;23.316;2022-12-18T01:13:53;95375.03;;;6.17;100.00
9774;BME280;4926;42.670;23.316;2022-12-18T01:16:20;95375.44;;;6.09;100.00
9774;BME280;4926;42.670;23.316;2022-12-18T01:18:47;95374.78;;;6.02;100.00
9774;BME280;4926;42.670;23.316;2022-12-18T01:21:15;95376.63;;;6.01;100.00
9774;BME280;4926;42.670;23.316;2022-12-18T01:23:45;95379.00;;;6.03;100.00
9774;BME280;4926;42.670;23.316;2022-12-18T01:26:16;95370.69;;;5.94;100.00
9774;BME280;4926;42.670;23.316;2022-12-18T01:28:44;95382.19;;;5.88;100.00
9774;BME280;4926;42.670;23.316;2022-12-18T01:31:17;95378.19;;;5.86;100.00
9774;BME280;4926;42.670;23.316;2022-12-18T01:33:45;95381.06;;;5.72;100.00
9774;BME280;4926;42.670;23.316;2022-12-18T01:36:16;95383.22;;;5.76;100.00
9774;BME280;4926;42.670;23.316;2022-12-18T01:38:43;95391.41;;;5.74;100.00
9774;BME280;4926;42.670;23.316;2022-12-18T01:41:10;95394.13;;;5.79;100.00
9774;BME280;4926;42.670;23.316;2022-12-18T01:43:56;95389.31;;;5.76;100.00
9774;BME280;4926;42.670;23.316;2022-12-18T01:46:26;95397.81;;;5.78;100.00
9774;BME280;4926;42.670;23.316;2022-12-18T01:48:55;95400.72;;;5.77;100.00
9774;BME280;4926;42.670;23.316;2022-12-18T01:51:23;95397.50;;;5.75;100.00
9774;BME280;4926;42.670;23.316;2022-12-18T01:53:50;95400.78;;;5.82;100.00
9774;BME280;4926;42.670;23.316;2022-12-18T01:56:18;95386.50;;;5.66;100.00
9774;BME280;4926;42.670;23.316;2022-12-18T01:58:50;95399.63;;;5.61;100.00
9774;BME280;4926;42.670;23.316;2022-12-18T02:01:21;95400.44;;;5.61;100.00
9774;BME280;4926;42.670;23.316;2022-12-18T02:03:49;95393.84;;;5.64;100.00
9774;BME280;4926;42.670;23.316;2022-12-18T02:06:20;95397.41;;;5.69;100.00
9774;BME280;4926;42.670;23.316;2022-12-18T02:08:59;95402.91;;;5.68;100.00
9774;BME280;4926;42.670;23.316;2022-12-18T02:11:39;95404.09;;;5.60;100.00
9774;BME280;4926;42.670;23.316;2022-12-18T02:14:17;95415.13;;;5.57;100.00
9774;BME280;4926;42.670;23.316;2022-12-18T02:16:52;95411.00;;;5.50;100.00
9774;BME280;4926;42.670;23.316;2022-12-18T02:19:34;95422.38;;;5.50;100.00
9774;BME280;4926;42.670;23.316;2022-12-18T02:22:17;95416.97;;;5.57;100.00
9774;BME280;4926;42.670;23.316;2022-12-18T02:24:58;95424.19;;;5.61;100.00
9774;BME280;4926;42.670;23.316;2022-12-18T02:27:28;95427.84;;;5.60;100.00
9774;BME280;4926;42.670;23.316;2022-12-18T02:29:57;95422.09;;;5.63;100.00
9774;BME280;4926;42.670;23.316;2022-12-18T02:32:27;95418.44;;;5.64;100.00
9774;BME280;4926;42.670;23.316;2022-12-18T02:34:56;95420.19;;;5.59;100.00
9774;BME280;4926;42.670;23.316;2022-12-18T02:37:26;95420.50;;;5.62;100.00
9774;BME280;4926;42.670;23.316;2022-12-18T02:39:55;95419.84;;;5.55;100.00
9774;BME280;4926;42.670;23.316;2022-12-18T02:42:23;95426.19;;;5.43;100.00
9774;BME280;4926;42.670;23.316;2022-12-18T02:44:52;95434.81;;;5.38;100.00
9774;BME280;4926;42.670;23.316;2022-12-18T02:47:24;95433.88;;;5.44;100.00
9774;BME280;4926;42.670;23.316;2022-12-18T02:49:58;95433.41;;;5.47;100.00
9774;BME280;4926;42.670;23.316;2022-12-18T02:52:34;95432.84;;;5.45;100.00
9774;BME280;4926;42.670;23.316;2022-12-18T02:55:11;95435.25;;;5.35;100.00
9774;BME280;4926;42.670;23.316;2022-12-18T02:57:42;95433.19;;;5.37;100.00
9774;BME280;4926;42.670;23.316;2022-12-18T03:00:16;95429.28;;;5.28;100.00
9774;BME280;4926;42.670;23.316;2022-12-18T03:02:50;95441.94;;;5.26;100.00
9774;BME280;4926;42.670;23.316;2022-12-18T03:05:24;95438.63;;;5.19;100.00
9774;BME280;4926;42.670;23.316;2022-12-18T03:07:57;95445.50;;;5.20;100.00
9774;BME280;4926;42.670;23.316;2022-12-18T03:10:28;95459.16;;;5.17;100.00
9774;BME280;4926;42.670;23.316;2022-12-18T03:13:02;95448.38;;;5.19;100.00
9774;BME280;4926;42.670;23.316;2022-12-18T03:15:35;95456.31;;;4.96;100.00
9774;BME280;4926;42.670;23.316;2022-12-18T03:18:05;95446.09;;;4.99;100.00
9774;BME280;4926;42.670;23.316;2022-12-18T03:20:34;95443.78;;;5.03;100.00
9774;BME280;4926;42.670;23.316;2022-12-18T03:23:07;95455.00;;;5.21;100.00
9774;BME280;4926;42.670;23.316;2022-12-18T03:25:39;95459.50;;;5.21;100.00
9774;BME280;4926;42.670;23.316;2022-12-18T03:28:10;95452.38;;;5.21;100.00
9774;BME280;4926;42.670;23.316;2022-12-18T03:30:41;95456.16;;;5.25;100.00
9774;BME280;4926;42.670;23.316;2022-12-18T03:33:14;95465.56;;;5.21;100.00
9774;BME280;4926;42.670;23.316;2022-12-18T03:35:45;95471.78;;;5.15;100.00
9774;BME280;4926;42.670;23.316;2022-12-18T03:38:12;95480.88;;;5.19;100.00
9774;BME280;4926;42.670;23.316;2022-12-18T03:40:48;95482.78;;;5.24;100.00
9774;BME280;4926;42.670;23.316;2022-12-18T03:43:20;95490.84;;;5.17;100.00
9774;BME280;4926;42.670;23.316;2022-12-18T03:46:02;95489.00;;;5.29;100.00
9774;BME280;4926;42.670;23.316;2022-12-18T03:48:32;95495.19;;;5.23;100.00
9774;BME280;4926;42.670;23.316;2022-12-18T03:51:07;95491.41;;;5.19;100.00
9774;BME280;4926;42.670;23.316;2022-12-18T03:53:41;95500.47;;;5.23;100.00
9774;BME280;4926;42.670;23.316;2022-12-18T03:56:13;95505.06;;;5.28;100.00
9774;BME280;4926;42.670;23.316;2022-12-18T03:58:45;95501.38;;;5.29;100.00
9774;BME280;4926;42.670;23.316;2022-12-18T04:01:15;95508.63;;;5.22;100.00
9774;BME280;4926;42.670;23.316;2022-12-18T04:03:44;95499.09;;;5.09;100.00
9774;BME280;4926;42.670;23.316;2022-12-18T04:06:16;95511.50;;;5.20;100.00
9774;BME280;4926;42.670;23.316;2022-12-18T04:08:44;95513.06;;;5.21;100.00
9774;BME280;4926;42.670;23.316;2022-12-18T04:11:11;95519.97;;;5.22;100.00
9774;BME280;4926;42.670;23.316;2022-12-18T04:13:38;95524.09;;;5.18;100.00
9774;BME280;4926;42.670;23.316;2022-12-18T04:16:06;95523.63;;;5.21;100.00
9774;BME280;4926;42.670;23.316;2022-12-18T04:18:34;95532.94;;;5.24;100.00
9774;BME280;4926;42.670;23.316;2022-12-18T04:21:01;95531.69;;;5.26;100.00
9774;BME280;4926;42.670;23.316;2022-12-18T04:23:30;95540.41;;;5.15;100.00
9774;BME280;4926;42.670;23.316;2022-12-18T04:25:57;95537.88;;;5.20;100.00
9774;BME280;4926;42.670;23.316;2022-12-18T04:28:23;95541.09;;;5.22;100.00
9774;BME280;4926;42.670;23.316;2022-12-18T04:30:50;95546.25;;;5.17;100.00
9774;BME280;4926;42.670;23.316;2022-12-18T04:33:17;95560.25;;;5.18;100.00
9774;BME280;4926;42.670;23.316;2022-12-18T04:35:45;95560.47;;;5.16;100.00
9774;BME280;4926;42.670;23.316;2022-12-18T04:38:12;95549.81;;;5.11;100.00
9774;BME280;4926;42.670;23.316;2022-12-18T04:40:39;95556.72;;;5.12;100.00
9774;BME280;4926;42.670;23.316;2022-12-18T04:43:05;95571.38;;;5.08;100.00
9774;BME280;4926;42.670;23.316;2022-12-18T04:45:32;95565.19;;;5.14;100.00
9774;BME280;4926;42.670;23.316;2022-12-18T04:48:02;95544.53;;;5.00;100.00
9774;BME280;4926;42.670;23.316;2022-12-18T04:50:32;95576.19;;;5.11;100.00
9774;BME280;4926;42.670;23.316;2022-12-18T04:53:03;95569.66;;;5.14;100.00
9774;BME280;4926;42.670;23.316;2022-12-18T04:55:30;95584.34;;;5.10;100.00
9774;BME280;4926;42.670;23.316;2022-12-18T04:57:59;95586.38;;;4.96;100.00
9774;BME280;4926;42.670;23.316;2022-12-18T05:00:26;95588.63;;;4.81;100.00
9774;BME280;4926;42.670;23.316;2022-12-18T05:02:53;95585.75;;;4.71;100.00
9774;BME280;4926;42.670;23.316;2022-12-18T05:05:19;95595.94;;;4.68;100.00
9774;BME280;4926;42.670;23.316;2022-12-18T05:07:46;95590.44;;;4.69;100.00
9774;BME280;4926;42.670;23.316;2022-12-18T05:10:14;95602.91;;;4.62;100.00
9774;BME280;4926;42.670;23.316;2022-12-18T05:12:44;95598.66;;;4.61;100.00
9774;BME280;4926;42.670;23.316;2022-12-18T05:15:26;95600.59;;;4.54;100.00
9774;BME280;4926;42.670;23.316;2022-12-18T05:17:54;95607.47;;;4.55;100.00
9774;BME280;4926;42.670;23.316;2022-12-18T05:20:21;95598.41;;;4.51;100.00
9774;BME280;4926;42.670;23.316;2022-12-18T05:22:48;95609.22;;;4.61;100.00
9774;BME280;4926;42.670;23.316;2022-12-18T05:25:22;95607.75;;;4.65;100.00
9774;BME280;4926;42.670;23.316;2022-12-18T05:27:49;95615.44;;;4.67;100.00
9774;BME280;4926;42.670;23.316;2022-12-18T05:30:18;95630.19;;;4.56;100.00
9774;BME280;4926;42.670;23.316;2022-12-18T05:32:45;95618.59;;;4.57;100.00
9774;BME280;4926;42.670;23.316;2022-12-18T05:35:12;95639.81;;;4.62;100.00
9774;BME280;4926;42.670;23.316;2022-12-18T05:37:38;95639.41;;;4.65;100.00
9774;BME280;4926;42.670;23.316;2022-12-18T05:40:06;95643.63;;;4.66;100.00
9774;BME280;4926;42.670;23.316;2022-12-18T05:42:37;95649.66;;;4.55;100.00
9774;BME280;4926;42.670;23.316;2022-12-18T05:45:07;95654.50;;;4.58;100.00
9774;BME280;4926;42.670;23.316;2022-12-18T05:47:37;95643.59;;;4.54;100.00
9774;BME280;4926;42.670;23.316;2022-12-18T05:50:07;95653.31;;;4.54;100.00
9774;BME280;4926;42.670;23.316;2022-12-18T05:52:34;95651.00;;;4.46;100.00
9774;BME280;4926;42.670;23.316;2022-12-18T05:55:04;95645.00;;;4.39;100.00
9774;BME280;4926;42.670;23.316;2022-12-18T05:57:33;95652.75;;;4.34;100.00
9774;BME280;4926;42.670;23.316;2022-12-18T06:00:02;95656.06;;;4.29;100.00
9774;BME280;4926;42.670;23.316;2022-12-18T06:02:29;95670.78;;;4.37;100.00
9774;BME280;4926;42.670;23.316;2022-12-18T06:04:55;95664.19;;;4.28;100.00
9774;BME280;4926;42.670;23.316;2022-12-18T06:07:22;95673.91;;;4.27;100.00
9774;BME280;4926;42.670;23.316;2022-12-18T06:09:49;95675.09;;;4.31;100.00
9774;BME280;4926;42.670;23.316;2022-12-18T06:12:15;95673.28;;;4.32;100.00
9774;BME280;4926;42.670;23.316;2022-12-18T06:14:42;95680.66;;;4.41;100.00
9774;BME280;4926;42.670;23.316;2022-12-18T06:17:12;95682.84;;;4.44;100.00
9774;BME280;4926;42.670;23.316;2022-12-18T06:19:38;95684.38;;;4.34;100.00
9774;BME280;4926;42.670;23.316;2022-12-18T06:22:08;95687.31;;;4.26;100.00
9774;BME280;4926;42.670;23.316;2022-12-18T06:24:37;95675.53;;;4.28;100.00
9774;BME280;4926;42.670;23.316;2022-12-18T06:27:04;95687.19;;;4.39;100.00
9774;BME280;4926;42.670;23.316;2022-12-18T06:29:33;95692.16;;;4.47;100.00
9774;BME280;4926;42.670;23.316;2022-12-18T06:32:00;95688.91;;;4.45;100.00
9774;BME280;4926;42.670;23.316;2022-12-18T06:34:31;95697.66;;;4.45;100.00
9774;BME280;4926;42.670;23.316;2022-12-18T06:36:58;95699.78;;;4.37;100.00
9774;BME280;4926;42.670;23.316;2022-12-18T06:39:27;95707.16;;;4.46;100.00
9774;BME280;4926;42.670;23.316;2022-12-18T06:41:54;95699.97;;;4.53;100.00
9774;BME280;4926;42.670;23.316;2022-12-18T06:44:20;95699.59;;;4.50;100.00
9774;BME280;4926;42.670;23.316;2022-12-18T06:46:47;95712.78;;;4.50;100.00
9774;BME280;4926;42.670;23.316;2022-12-18T06:49:18;95710.16;;;4.50;100.00
9774;BME280;4926;42.670;23.316;2022-12-18T06:51:47;95721.00;;;4.60;100.00
9774;BME280;4926;42.670;23.316;2022-12-18T06:54:13;95720.69;;;4.68;100.00
9774;BME280;4926;42.670;23.316;2022-12-18T06:56:40;95724.06;;;4.75;100.00
9774;BME280;4926;42.670;23.316;2022-12-18T06:59:07;95714.25;;;4.64;100.00
9774;BME280;4926;42.670;23.316;2022-12-18T07:01:33;95729.47;;;4.62;100.00
9774;BME280;4926;42.670;23.316;2022-12-18T07:04:01;95726.28;;;4.60;100.00
9774;BME280;4926;42.670;23.316;2022-12-18T07:06:27;95726.84;;;4.62;100.00
9774;BME280;4926;42.670;23.316;2022-12-18T07:08:59;95735.94;;;4.66;100.00
9774;BME280;4926;42.670;23.316;2022-12-18T07:11:25;95733.16;;;4.61;100.00
9774;BME280;4926;42.670;23.316;2022-12-18T07:13:52;95731.56;;;4.60;100.00
9774;BME280;4926;42.670;23.316;2022-12-18T07:16:20;95736.38;;;4.63;100.00
9774;BME280;4926;42.670;23.316;2022-12-18T07:18:47;95747.38;;;4.60;100.00
9774;BME280;4926;42.670;23.316;2022-12-18T07:21:15;95733.97;;;4.62;100.00
9774;BME280;4926;42.670;23.316;2022-12-18T07:23:42;95730.81;;;4.53;100.00
9774;BME280;4926;42.670;23.316;2022-12-18T07:26:12;95739.00;;;4.63;100.00
9774;BME280;4926;42.670;23.316;2022-12-18T07:28:40;95747.19;;;4.73;100.00
9774;BME280;4926;42.670;23.316;2022-12-18T07:31:09;95747.66;;;4.70;100.00
9774;BME280;4926;42.670;23.316;2022-12-18T07:33:40;95754.88;;;4.75;100.00
9774;BME280;4926;42.670;23.316;2022-12-18T07:36:08;95757.91;;;4.60;100.00
9774;BME280;4926;42.670;23.316;2022-12-18T07:38:38;95758.78;;;4.54;100.00
9774;BME280;4926;42.670;23.316;2022-12-18T07:41:11;95755.78;;;4.50;100.00
9774;BME280;4926;42.670;23.316;2022-12-18T07:43:38;95756.81;;;4.49;100.00
9774;BME280;4926;42.670;23.316;2022-12-18T07:46:06;95769.13;;;4.55;100.00
9774;BME280;4926;42.670;23.316;2022-12-18T07:48:36;95769.41;;;4.47;100.00
9774;BME280;4926;42.670;23.316;2022-12-18T07:51:04;95760.09;;;4.45;100.00
9774;BME280;4926;42.670;23.316;2022-12-18T07:53:32;95769.91;;;4.38;100.00
9774;BME280;4926;42.670;23.316;2022-12-18T07:56:02;95770.78;;;4.32;100.00
9774;BME280;4926;42.670;23.316;2022-12-18T07:58:30;95770.72;;;4.38;100.00
9774;BME280;4926;42.670;23.316;2022-12-18T08:01:03;95780.53;;;4.31;100.00
9774;BME280;4926;42.670;23.316;2022-12-18T08:03:30;95778.84;;;4.37;100.00
9774;BME280;4926;42.670;23.316;2022-12-18T08:05:59;95780.00;;;4.41;100.00
9774;BME280;4926;42.670;23.316;2022-12-18T08:08:26;95793.47;;;4.33;100.00
9774;BME280;4926;42.670;23.316;2022-12-18T08:10:53;95800.13;;;4.17;100.00
9774;BME280;4926;42.670;23.316;2022-12-18T08:13:20;95796.44;;;4.18;100.00
9774;BME280;4926;42.670;23.316;2022-12-18T08:16:03;95796.63;;;3.99;100.00
9774;BME280;4926;42.670;23.316;2022-12-18T08:18:35;95805.97;;;3.95;100.00
9774;BME280;4926;42.670;23.316;2022-12-18T08:21:09;95815.91;;;3.93;100.00
9774;BME280;4926;42.670;23.316;2022-12-18T08:23:38;95810.00;;;3.97;100.00
9774;BME280;4926;42.670;23.316;2022-12-18T08:26:06;95822.22;;;3.92;100.00
9774;BME280;4926;42.670;23.316;2022-12-18T08:28:38;95827.50;;;3.92;100.00
9774;BME280;4926;42.670;23.316;2022-12-18T08:31:06;95821.34;;;3.98;100.00
9774;BME280;4926;42.670;23.316;2022-12-18T08:33:35;95802.75;;;3.93;100.00
9774;BME280;4926;42.670;23.316;2022-12-18T08:36:03;95829.16;;;4.11;100.00
9774;BME280;4926;42.670;23.316;2022-12-18T08:38:31;95834.16;;;4.19;100.00
9774;BME280;4926;42.670;23.316;2022-12-18T08:40:58;95834.59;;;4.16;100.00
9774;BME280;4926;42.670;23.316;2022-12-18T08:43:27;95834.59;;;4.16;100.00
9774;BME280;4926;42.670;23.316;2022-12-18T08:46:23;95831.34;;;4.14;100.00
9774;BME280;4926;42.670;23.316;2022-12-18T08:48:54;95828.06;;;4.18;100.00
9774;BME280;4926;42.670;23.316;2022-12-18T08:51:20;95832.56;;;4.18;100.00
9774;BME280;4926;42.670;23.316;2022-12-18T08:53:50;95841.38;;;4.30;100.00
9774;BME280;4926;42.670;23.316;2022-12-18T08:56:21;95843.03;;;4.24;100.00
9774;BME280;4926;42.670;23.316;2022-12-18T08:58:57;95844.25;;;4.22;100.00
9774;BME280;4926;42.670;23.316;2022-12-18T09:01:25;95833.56;;;4.17;100.00
9774;BME280;4926;42.670;23.316;2022-12-18T09:03:59;95829.25;;;4.22;100.00
9774;BME280;4926;42.670;23.316;2022-12-18T09:06:29;95837.69;;;4.31;100.00
9774;BME280;4926;42.670;23.316;2022-12-18T09:09:02;95824.34;;;4.26;100.00
9774;BME280;4926;42.670;23.316;2022-12-18T09:11:29;95824.44;;;4.19;100.00
9774;BME280;4926;42.670;23.316;2022-12-18T09:14:02;95833.72;;;4.22;100.00
9774;BME280;4926;42.670;23.316;2022-12-18T09:16:30;95828.03;;;4.25;100.00
9774;BME280;4926;42.670;23.316;2022-12-18T09:18:58;95823.50;;;4.32;100.00
9774;BME280;4926;42.670;23.316;2022-12-18T09:21:26;95831.19;;;4.33;100.00
9774;BME280;4926;42.670;23.316;2022-12-18T09:23:56;95835.53;;;4.46;100.00
9774;BME280;4926;42.670;23.316;2022-12-18T09:26:25;95833.47;;;4.48;100.00
9774;BME280;4926;42.670;23.316;2022-12-18T09:28:52;95843.66;;;4.44;100.00
9774;BME280;4926;42.670;23.316;2022-12-18T09:31:23;95825.19;;;4.26;97.69
9774;BME280;4926;42.670;23.316;2022-12-18T09:33:52;95824.50;;;4.31;98.50
9774;BME280;4926;42.670;23.316;2022-12-18T09:36:20;95844.91;;;4.42;96.80
9774;BME280;4926;42.670;23.316;2022-12-18T09:38:47;95831.72;;;4.42;94.66
9774;BME280;4926;42.670;23.316;2022-12-18T09:41:25;95839.63;;;4.42;93.60
9774;BME280;4926;42.670;23.316;2022-12-18T09:44:00;95840.44;;;4.42;93.38
9774;BME280;4926;42.670;23.316;2022-12-18T09:46:40;95843.09;;;4.61;93.15
9774;BME280;4926;42.670;23.316;2022-12-18T09:49:14;95839.84;;;4.58;93.17
9774;BME280;4926;42.670;23.316;2022-12-18T09:51:44;95843.47;;;4.64;93.94
9774;BME280;4926;42.670;23.316;2022-12-18T09:54:16;95834.91;;;4.69;93.02
9774;BME280;4926;42.670;23.316;2022-12-18T09:56:45;95829.13;;;4.60;92.49
9774;BME280;4926;42.670;23.316;2022-12-18T09:59:18;95842.44;;;4.65;91.79
9774;BME280;4926;42.670;23.316;2022-12-18T10:01:52;95835.28;;;4.72;91.14
9774;BME280;4926;42.670;23.316;2022-12-18T10:04:21;95832.03;;;4.88;91.16
9774;BME280;4926;42.670;23.316;2022-12-18T10:06:54;95829.41;;;4.88;90.67
9774;BME280;4926;42.670;23.316;2022-12-18T10:09:34;95829.25;;;5.01;90.77
9774;BME280;4926;42.670;23.316;2022-12-18T10:12:08;95833.81;;;4.94;91.03
9774;BME280;4926;42.670;23.316;2022-12-18T10:14:48;95831.69;;;5.03;90.90
9774;BME280;4926;42.670;23.316;2022-12-18T10:17:25;95840.25;;;4.98;91.01
9774;BME280;4926;42.670;23.316;2022-12-18T10:19:57;95838.22;;;5.00;90.41
9774;BME280;4926;42.670;23.316;2022-12-18T10:22:37;95843.78;;;5.10;90.05
9774;BME280;4926;42.670;23.316;2022-12-18T10:25:15;95845.66;;;5.21;88.05
9774;BME280;4926;42.670;23.316;2022-12-18T10:27:43;95843.59;;;5.23;86.36
9774;BME280;4926;42.670;23.316;2022-12-18T10:30:13;95836.00;;;5.15;85.90
9774;BME280;4926;42.670;23.316;2022-12-18T10:32:42;95843.19;;;5.08;86.24
9774;BME280;4926;42.670;23.316;2022-12-18T10:35:18;95832.19;;;5.11;87.00
9774;BME280;4926;42.670;23.316;2022-12-18T10:38:07;95825.16;;;5.05;86.91
9774;BME280;4926;42.670;23.316;2022-12-18T10:40:53;95830.13;;;5.31;87.22
9774;BME280;4926;42.670;23.316;2022-12-18T10:43:22;95839.88;;;5.31;85.96
9774;BME280;4926;42.670;23.316;2022-12-18T10:45:59;95829.22;;;5.37;85.88
9774;BME280;4926;42.670;23.316;2022-12-18T10:48:27;95837.72;;;5.39;86.27
9774;BME280;4926;42.670;23.316;2022-12-18T10:50:56;95834.94;;;5.34;86.02
9774;BME280;4926;42.670;23.316;2022-12-18T10:53:25;95829.38;;;5.24;86.35
9774;BME280;4926;42.670;23.316;2022-12-18T10:55:53;95830.53;;;5.28;85.18
9774;BME280;4926;42.670;23.316;2022-12-18T10:58:24;95819.41;;;5.26;84.57
9774;BME280;4926;42.670;23.316;2022-12-18T11:01:10;95829.03;;;5.21;84.84
9774;BME280;4926;42.670;23.316;2022-12-18T11:03:38;95835.53;;;5.18;84.33
9774;BME280;4926;42.670;23.316;2022-12-18T11:06:08;95830.03;;;5.20;83.58
9774;BME280;4926;42.670;23.316;2022-12-18T11:08:36;95842.00;;;5.22;82.98
9774;BME280;4926;42.670;23.316;2022-12-18T11:11:07;95833.63;;;5.25;82.86
9774;BME280;4926;42.670;23.316;2022-12-18T11:13:56;95838.78;;;5.20;81.65
9774;BME280;4926;42.670;23.316;2022-12-18T11:16:28;95837.47;;;5.11;81.13
9774;BME280;4926;42.670;23.316;2022-12-18T11:19:17;95831.16;;;5.12;81.75
9774;BME280;4926;42.670;23.316;2022-12-18T11:21:50;95842.09;;;5.16;81.32
9774;BME280;4926;42.670;23.316;2022-12-18T11:24:24;95843.59;;;5.23;80.52
9774;BME280;4926;42.670;23.316;2022-12-18T11:26:53;95834.41;;;5.14;80.86
9774;BME280;4926;42.670;23.316;2022-12-18T11:29:24;95844.50;;;5.17;80.85
9774;BME280;4926;42.670;23.316;2022-12-18T11:32:19;95830.75;;;5.27;79.88
9774;BME280;4926;42.670;23.316;2022-12-18T11:34:51;95835.75;;;5.35;79.80
9774;BME280;4926;42.670;23.316;2022-12-18T11:37:22;95835.97;;;5.33;80.51
9774;BME280;4926;42.670;23.316;2022-12-18T11:39:54;95834.84;;;5.41;79.88
9774;BME280;4926;42.670;23.316;2022-12-18T11:42:30;95841.06;;;5.46;79.85
9774;BME280;4926;42.670;23.316;2022-12-18T11:45:14;95843.00;;;5.39;79.42
9774;BME280;4926;42.670;23.316;2022-12-18T11:47:52;95839.19;;;5.35;79.73
9774;BME280;4926;42.670;23.316;2022-12-18T11:50:23;95844.16;;;5.43;79.84
9774;BME280;4926;42.670;23.316;2022-12-18T11:52:57;95842.13;;;5.45;77.55
9774;BME280;4926;42.670;23.316;2022-12-18T11:55:31;95837.84;;;5.44;77.27
9774;BME280;4926;42.670;23.316;2022-12-18T11:58:09;95827.16;;;5.39;77.62
9774;BME280;4926;42.670;23.316;2022-12-18T12:00:43;95826.63;;;5.49;77.85
9774;BME280;4926;42.670;23.316;2022-12-18T12:03:27;95834.09;;;5.52;78.26
9774;BME280;4926;42.670;23.316;2022-12-18T12:06:08;95835.34;;;5.49;78.50
9774;BME280;4926;42.670;23.316;2022-12-18T12:08:48;95843.22;;;5.38;79.03
9774;BME280;4926;42.670;23.316;2022-12-18T12:11:28;95839.25;;;5.47;79.63
9774;BME280;4926;42.670;23.316;2022-12-18T12:14:14;95831.69;;;5.50;79.64
9774;BME280;4926;42.670;23.316;2022-12-18T12:16:49;95834.31;;;5.50;79.78
9774;BME280;4926;42.670;23.316;2022-12-18T12:19:32;95827.28;;;5.44;79.89
9774;BME280;4926;42.670;23.316;2022-12-18T12:22:07;95837.84;;;5.44;79.74
9774;BME280;4926;42.670;23.316;2022-12-18T12:24:48;95829.94;;;5.44;80.25
9774;BME280;4926;42.670;23.316;2022-12-18T12:27:26;95838.16;;;5.54;80.15
9774;BME280;4926;42.670;23.316;2022-12-18T12:30:03;95830.56;;;5.58;79.06
9774;BME280;4926;42.670;23.316;2022-12-18T12:32:44;95843.56;;;5.59;79.06
9774;BME280;4926;42.670;23.316;2022-12-18T12:35:25;95839.16;;;5.53;80.08
9774;BME280;4926;42.670;23.316;2022-12-18T12:38:07;95839.50;;;5.57;79.88
9774;BME280;4926;42.670;23.316;2022-12-18T12:40:40;95845.06;;;5.67;79.84
9774;BME280;4926;42.670;23.316;2022-12-18T12:43:33;95853.09;;;5.72;80.07
9774;BME280;4926;42.670;23.316;2022-12-18T12:46:04;95844.53;;;5.77;80.13
9774;BME280;4926;42.670;23.316;2022-12-18T12:48:41;95844.06;;;5.80;80.36
9774;BME280;4926;42.670;23.316;2022-12-18T12:51:15;95836.25;;;5.73;80.22
9774;BME280;4926;42.670;23.316;2022-12-18T12:53:45;95845.00;;;5.74;80.58
9774;BME280;4926;42.670;23.316;2022-12-18T12:56:15;95834.41;;;5.74;80.41
9774;BME280;4926;42.670;23.316;2022-12-18T12:58:52;95850.09;;;5.87;81.02
9774;BME280;4926;42.670;23.316;2022-12-18T13:01:31;95848.94;;;5.83;80.76
9774;BME280;4926;42.670;23.316;2022-12-18T13:04:10;95850.97;;;5.81;80.73
9774;BME280;4926;42.670;23.316;2022-12-18T13:06:45;95863.75;;;5.84;80.60
9774;BME280;4926;42.670;23.316;2022-12-18T13:09:14;95854.84;;;5.66;79.25
9774;BME280;4926;42.670;23.316;2022-12-18T13:11:43;95859.81;;;5.56;79.79
9774;BME280;4926;42.670;23.316;2022-12-18T13:14:30;95873.66;;;5.40;80.31
9774;BME280;4926;42.670;23.316;2022-12-18T13:17:27;95881.28;;;5.30;80.83
9774;BME280;4926;42.670;23.316;2022-12-18T13:20:08;95878.00;;;5.17;81.13
9774;BME280;4926;42.670;23.316;2022-12-18T13:22:36;95892.16;;;5.22;82.02
9774;BME280;4926;42.670;23.316;2022-12-18T13:25:32;95889.06;;;5.25;82.61
9774;BME280;4926;42.670;23.316;2022-12-18T13:28:12;95888.78;;;5.33;82.46
9774;BME280;4926;42.670;23.316;2022-12-18T13:30:53;95894.63;;;5.35;81.89
9774;BME280;4926;42.670;23.316;2022-12-18T13:33:47;95896.16;;;5.25;81.87
9774;BME280;4926;42.670;23.316;2022-12-18T13:36:30;95890.53;;;5.21;82.11
9774;BME280;4926;42.670;23.316;2022-12-18T13:39:23;95889.19;;;5.30;82.64